createdAt,value
2023-05-12T00:01:17.252Z,3.67
2023-05-12T00:03:44.128Z,3.55
2023-05-12T00:06:11.326Z,3.30
2023-05-12T00:08:38.034Z,2.80
2023-05-12T00:11:04.583Z,3.78
2023-05-12T00:13:31.341Z,3.38
2023-05-12T00:15:59.363Z,3.22
2023-05-12T00:18:28.198Z,2.93
2023-05-12T00:20:55.231Z,3.80
2023-05-12T00:23:22.699Z,3.40
2023-05-12T00:25:49.891Z,3.20
2023-05-12T00:28:17.819Z,3.30
2023-05-12T00:30:44.358Z,3.10
2023-05-12T00:33:11.129Z,3.40
2023-05-12T00:35:37.552Z,2.90
2023-05-12T00:38:04.035Z,3.15
2023-05-12T00:40:30.501Z,3.00
2023-05-12T00:42:57.024Z,3.00
2023-05-12T00:45:23.823Z,2.75
2023-05-12T00:47:52.342Z,2.55
2023-05-12T00:50:19.180Z,3.10
2023-05-12T00:52:47.072Z,3.25
2023-05-12T00:55:13.506Z,3.20
2023-05-12T00:57:41.105Z,3.10
2023-05-12T01:00:08.824Z,3.22
2023-05-12T01:02:36.532Z,3.20
2023-05-12T01:05:04.219Z,2.72
2023-05-12T01:07:32.998Z,2.77
2023-05-12T01:09:59.605Z,2.53
2023-05-12T01:12:27.146Z,3.00
2023-05-12T01:14:56.259Z,3.13
2023-05-12T01:17:32.085Z,3.30
2023-05-12T01:20:04.656Z,2.93
2023-05-12T01:22:33.551Z,2.75
2023-05-12T01:25:09.831Z,2.65
2023-05-12T01:27:39.705Z,3.30
2023-05-12T01:30:06.966Z,3.10
2023-05-12T01:32:34.444Z,2.70
2023-05-12T01:35:00.940Z,3.10
2023-05-12T01:37:27.536Z,3.15
2023-05-12T01:39:55.079Z,3.15
2023-05-12T01:42:21.625Z,3.05
2023-05-12T01:44:48.080Z,3.00
2023-05-12T01:47:15.957Z,3.00
2023-05-12T01:49:42.733Z,3.08
2023-05-12T01:52:09.253Z,2.63
2023-05-12T01:54:36.067Z,2.53
2023-05-12T01:57:02.667Z,2.40
2023-05-12T01:59:28.996Z,2.25
2023-05-12T02:01:55.550Z,2.72
2023-05-12T02:04:22.174Z,2.30
2023-05-12T02:06:48.555Z,2.75
2023-05-12T02:09:15.129Z,2.53
2023-05-12T02:11:41.782Z,2.38
2023-05-12T02:14:08.156Z,1.95
2023-05-12T02:16:34.618Z,1.95
2023-05-12T02:19:01.361Z,1.92
2023-05-12T02:21:28.061Z,2.30
2023-05-12T02:23:54.495Z,1.80
2023-05-12T02:26:21.155Z,1.90
2023-05-12T02:28:47.799Z,1.98
2023-05-12T02:31:14.230Z,1.80
2023-05-12T02:33:40.596Z,1.93
2023-05-12T02:36:07.536Z,2.00
2023-05-12T02:38:34.122Z,2.10
2023-05-12T02:41:01.037Z,2.03
2023-05-12T02:43:27.731Z,2.00
2023-05-12T02:45:54.843Z,2.30
2023-05-12T02:48:21.317Z,2.33
2023-05-12T02:50:47.664Z,2.50
2023-05-12T02:53:14.063Z,2.50
2023-05-12T02:55:40.575Z,2.42
2023-05-12T02:58:07.081Z,2.80
2023-05-12T03:00:33.518Z,2.90
2023-05-12T03:03:00.081Z,2.78
2023-05-12T03:05:26.812Z,2.88
2023-05-12T03:07:53.227Z,2.90
2023-05-12T03:10:19.942Z,3.00
2023-05-12T03:12:46.585Z,3.33
2023-05-12T03:15:12.965Z,3.38
2023-05-12T03:17:39.509Z,4.00
2023-05-12T03:20:06.867Z,3.83
2023-05-12T03:22:33.752Z,4.70
2023-05-12T03:25:00.176Z,4.50
2023-05-12T03:27:26.791Z,4.18
2023-05-12T03:29:53.272Z,5.18
2023-05-12T03:32:19.734Z,4.90
2023-05-12T03:34:46.213Z,4.67
2023-05-12T03:37:12.652Z,5.00
2023-05-12T03:39:39.088Z,5.22
2023-05-12T03:42:05.986Z,5.53
2023-05-12T03:44:32.396Z,5.88
2023-05-12T03:46:58.903Z,5.93
2023-05-12T03:49:25.447Z,6.82
2023-05-12T03:51:51.995Z,6.60
2023-05-12T03:54:18.437Z,5.85
2023-05-12T03:56:44.952Z,6.78
2023-05-12T03:59:12.083Z,6.83
2023-05-12T04:01:38.836Z,6.45
2023-05-12T04:04:05.294Z,7.63
2023-05-12T04:06:31.742Z,6.82
2023-05-12T04:08:58.805Z,7.53
2023-05-12T04:11:25.261Z,7.90
2023-05-12T04:13:51.660Z,8.02
2023-05-12T04:16:18.287Z,7.72
2023-05-12T04:18:44.737Z,7.60
2023-05-12T04:21:11.290Z,8.13
2023-05-12T04:23:37.723Z,8.30
2023-05-12T04:26:05.216Z,8.32
2023-05-12T04:28:32.017Z,9.07
2023-05-12T04:31:04.927Z,9.35
2023-05-12T04:33:31.538Z,8.18
2023-05-12T04:35:58.262Z,8.20
2023-05-12T04:38:24.777Z,9.25
2023-05-12T04:40:51.241Z,8.60
2023-05-12T04:45:47.246Z,10.15
2023-05-12T04:48:13.616Z,9.80
2023-05-12T04:50:40.022Z,10.18
2023-05-12T04:53:06.422Z,10.13
2023-05-12T04:55:32.930Z,10.50
2023-05-12T04:57:59.326Z,10.23
2023-05-12T05:00:25.787Z,10.00
2023-05-12T05:02:52.396Z,11.38
2023-05-12T05:05:19.058Z,11.15
2023-05-12T05:07:45.958Z,10.63
2023-05-12T05:10:12.598Z,11.27
2023-05-12T05:12:38.988Z,11.20
2023-05-12T05:15:06.194Z,11.23
2023-05-12T05:17:32.685Z,10.63
2023-05-12T05:19:59.851Z,10.70
2023-05-12T05:22:27.302Z,11.82
2023-05-12T05:24:53.760Z,13.03
2023-05-12T05:27:20.637Z,10.50
2023-05-12T05:29:47.173Z,12.63
2023-05-12T05:32:13.664Z,11.77
2023-05-12T05:34:40.197Z,11.32
2023-05-12T05:37:06.642Z,13.23
2023-05-12T05:39:33.143Z,12.07
2023-05-12T05:41:59.607Z,13.05
2023-05-12T05:44:26.045Z,12.52
2023-05-12T05:46:52.576Z,12.40
2023-05-12T05:49:19.672Z,12.03
2023-05-12T05:51:46.030Z,11.68
2023-05-12T05:54:12.363Z,12.60
2023-05-12T05:56:38.826Z,12.13
2023-05-12T05:59:05.492Z,12.15
2023-05-12T06:01:32.839Z,12.60
2023-05-12T06:03:59.692Z,13.50
2023-05-12T06:06:26.307Z,12.43
2023-05-12T06:08:55.830Z,12.98
2023-05-12T06:11:22.363Z,12.73
2023-05-12T06:13:48.753Z,12.37
2023-05-12T06:16:15.115Z,12.50
2023-05-12T06:18:41.536Z,12.98
2023-05-12T06:21:08.112Z,12.55
2023-05-12T06:23:34.495Z,13.23
2023-05-12T06:26:00.854Z,13.27
2023-05-12T06:28:27.342Z,13.05
2023-05-12T06:30:53.848Z,12.82
2023-05-12T06:33:20.209Z,13.63
2023-05-12T06:35:46.682Z,12.65
2023-05-12T06:38:13.014Z,13.17
2023-05-12T06:40:39.558Z,12.02
2023-05-12T06:43:06.026Z,12.63
2023-05-12T06:45:32.536Z,13.15
2023-05-12T06:47:58.984Z,13.40
2023-05-12T06:50:25.498Z,13.17
2023-05-12T06:52:51.925Z,12.73
2023-05-12T06:55:20.680Z,12.85
2023-05-12T06:57:47.582Z,13.30
2023-05-12T07:00:14.581Z,13.18
2023-05-12T07:02:41.254Z,12.30
2023-05-12T07:05:08.201Z,12.45
2023-05-12T07:07:36.026Z,12.23
2023-05-12T07:10:02.431Z,11.88
2023-05-12T07:12:28.823Z,13.38
2023-05-12T07:14:55.168Z,13.40
2023-05-12T07:17:21.747Z,12.95
2023-05-12T07:19:48.358Z,12.80
2023-05-12T07:22:14.796Z,13.45
2023-05-12T07:24:41.617Z,13.85
2023-05-12T07:27:08.197Z,12.87
2023-05-12T07:29:34.929Z,13.65
2023-05-12T07:32:01.400Z,12.45
2023-05-12T07:34:27.913Z,12.48
2023-05-12T07:36:54.320Z,11.68
2023-05-12T07:39:23.653Z,12.60
2023-05-12T07:41:51.114Z,12.93
2023-05-12T07:44:17.547Z,12.05
2023-05-12T07:46:44.084Z,12.38
2023-05-12T07:49:10.461Z,12.48
2023-05-12T07:51:37.085Z,11.67
2023-05-12T07:54:04.815Z,10.70
2023-05-12T07:56:31.259Z,11.23
2023-05-12T07:58:57.688Z,11.05
2023-05-12T08:01:24.287Z,10.88
2023-05-12T08:03:51.479Z,10.87
2023-05-12T08:06:18.438Z,11.23
2023-05-12T08:08:45.223Z,11.02
2023-05-12T08:11:12.649Z,10.45
2023-05-12T08:13:39.486Z,9.73
2023-05-12T08:16:06.248Z,9.33
2023-05-12T08:18:32.660Z,9.60
2023-05-12T08:20:59.045Z,9.88
2023-05-12T08:23:25.552Z,10.27
2023-05-12T08:25:51.981Z,9.98
2023-05-12T08:28:18.478Z,9.73
2023-05-12T08:30:45.524Z,10.07
2023-05-12T08:33:12.627Z,9.18
2023-05-12T08:35:39.595Z,9.15
2023-05-12T08:38:06.307Z,10.35
2023-05-12T08:40:37.960Z,10.03
2023-05-12T08:43:14.168Z,9.10
2023-05-12T08:45:41.071Z,9.35
2023-05-12T08:48:10.898Z,9.82
2023-05-12T08:50:38.888Z,9.38
2023-05-12T08:53:10.401Z,8.77
2023-05-12T08:55:37.104Z,7.90
2023-05-12T08:58:05.066Z,8.88
2023-05-12T09:00:34.319Z,8.50
2023-05-12T09:03:02.223Z,7.28
2023-05-12T09:05:30.759Z,7.53
2023-05-12T09:08:00.477Z,8.02
2023-05-12T09:10:35.156Z,8.05
2023-05-12T09:13:21.777Z,7.97
2023-05-12T09:15:48.868Z,8.23
2023-05-12T09:18:15.410Z,7.73
2023-05-12T09:20:42.563Z,7.20
2023-05-12T09:23:16.642Z,6.85
2023-05-12T09:25:43.206Z,6.30
2023-05-12T09:28:09.751Z,5.63
2023-05-12T09:30:38.291Z,5.10
2023-05-12T09:33:06.692Z,5.25
2023-05-12T09:35:38.555Z,5.03
2023-05-12T09:38:14.542Z,4.65
2023-05-12T09:40:41.040Z,4.55
2023-05-12T09:43:08.202Z,4.77
2023-05-12T09:45:36.381Z,4.72
2023-05-12T09:48:10.823Z,5.03
2023-05-12T09:50:51.398Z,5.00
2023-05-12T09:53:19.348Z,4.35
2023-05-12T09:55:47.296Z,4.10
2023-05-12T09:58:16.290Z,4.60
2023-05-12T10:01:12.854Z,4.95
2023-05-12T10:03:31.619Z,4.70
2023-05-12T10:06:01.462Z,4.43
2023-05-12T10:08:33.909Z,4.20
2023-05-12T10:11:02.351Z,4.15
2023-05-12T10:13:29.390Z,4.38
2023-05-12T10:15:57.583Z,3.72
2023-05-12T10:18:24.741Z,4.00
2023-05-12T10:20:53.547Z,3.47
2023-05-12T10:23:20.207Z,3.95
2023-05-12T10:25:47.732Z,4.20
2023-05-12T10:28:14.188Z,3.67
2023-05-12T10:30:41.932Z,3.70
2023-05-12T10:33:11.314Z,3.37
2023-05-12T10:35:40.050Z,3.17
2023-05-12T10:38:17.635Z,3.63
2023-05-12T10:40:53.454Z,3.25
2023-05-12T10:43:24.577Z,2.65
2023-05-12T10:46:15.999Z,2.83
2023-05-12T10:49:13.004Z,3.10
2023-05-12T10:51:42.357Z,2.85
2023-05-12T10:54:11.246Z,2.85
2023-05-12T10:56:38.377Z,3.00
2023-05-12T10:59:31.920Z,3.60
2023-05-12T11:02:04.062Z,3.15
2023-05-12T11:04:37.970Z,3.22
2023-05-12T11:07:06.208Z,3.10
2023-05-12T11:09:36.567Z,2.75
2023-05-12T11:12:08.437Z,2.03
2023-05-12T11:14:36.423Z,2.10
2023-05-12T11:17:03.149Z,2.30
2023-05-12T11:19:30.466Z,2.58
2023-05-12T11:21:56.937Z,2.45
2023-05-12T11:24:23.883Z,2.57
2023-05-12T11:26:52.009Z,2.70
2023-05-12T11:29:19.888Z,2.20
2023-05-12T11:31:53.320Z,2.50
2023-05-12T11:34:24.107Z,2.33
2023-05-12T11:36:52.792Z,2.30
2023-05-12T11:39:24.810Z,2.30
2023-05-12T11:41:56.821Z,1.98
2023-05-12T11:44:32.509Z,2.45
2023-05-12T11:47:11.180Z,2.53
2023-05-12T11:49:51.479Z,2.37
2023-05-12T11:52:19.761Z,2.33
2023-05-12T11:54:55.840Z,2.60
2023-05-12T11:57:29.627Z,2.80
2023-05-12T12:00:07.649Z,2.50
2023-05-12T12:02:36.667Z,2.73
2023-05-12T12:05:03.487Z,2.42
2023-05-12T12:07:34.883Z,2.38
2023-05-12T12:10:12.669Z,2.38
2023-05-12T12:12:39.511Z,2.42
2023-05-12T12:15:06.561Z,2.70
2023-05-12T12:17:32.987Z,2.22
2023-05-12T12:19:59.480Z,2.47
2023-05-12T12:22:26.015Z,2.78
2023-05-12T12:24:52.748Z,2.50
2023-05-12T12:27:19.236Z,2.40
2023-05-12T12:29:45.602Z,2.45
2023-05-12T12:32:12.107Z,2.88
2023-05-12T12:34:38.448Z,2.75
2023-05-12T12:37:05.461Z,2.75
2023-05-12T12:39:31.941Z,2.20
2023-05-12T12:41:58.908Z,2.10
2023-05-12T12:44:25.310Z,2.50
2023-05-12T12:46:51.761Z,2.63
2023-05-12T12:49:18.234Z,2.70
2023-05-12T12:51:46.595Z,3.10
2023-05-12T12:54:14.497Z,2.40
2023-05-12T12:56:40.959Z,2.70
2023-05-12T12:59:07.584Z,2.45
2023-05-12T13:01:34.202Z,2.83
2023-05-12T13:04:01.106Z,2.50
2023-05-12T13:06:27.678Z,2.70
2023-05-12T13:08:54.142Z,2.90
2023-05-12T13:11:20.564Z,2.72
2023-05-12T13:13:47.046Z,2.85
2023-05-12T13:16:13.581Z,2.90
2023-05-12T13:18:40.079Z,3.17
2023-05-12T13:21:06.522Z,3.20
2023-05-12T13:23:32.933Z,3.00
2023-05-12T13:25:59.382Z,3.30
2023-05-12T13:28:25.812Z,3.40
2023-05-12T13:30:52.737Z,3.35
2023-05-12T13:33:19.365Z,3.75
2023-05-12T13:35:45.800Z,3.30
2023-05-12T13:38:12.333Z,3.00
2023-05-12T13:40:38.770Z,3.00
2023-05-12T13:43:05.150Z,3.00
2023-05-12T13:45:31.588Z,3.20
2023-05-12T13:47:58.057Z,3.47
2023-05-12T13:50:24.562Z,3.10
2023-05-12T13:52:50.967Z,3.17
2023-05-12T13:55:21.404Z,2.95
2023-05-12T13:57:48.891Z,2.70
2023-05-12T14:00:17.262Z,2.38
2023-05-12T14:02:43.886Z,2.78
2023-05-12T14:05:10.688Z,2.50
2023-05-12T14:07:37.134Z,2.70
2023-05-12T14:10:03.654Z,2.70
2023-05-12T14:12:30.142Z,2.80
2023-05-12T14:15:04.488Z,2.67
2023-05-12T14:17:38.575Z,2.80
2023-05-12T14:20:06.526Z,2.70
2023-05-12T14:22:33.471Z,3.00
2023-05-12T14:25:00.519Z,3.15
2023-05-12T14:27:27.004Z,2.90
2023-05-12T14:29:53.489Z,3.00
2023-05-12T14:32:19.989Z,4.03
2023-05-12T14:34:46.366Z,2.35
2023-05-12T14:37:12.771Z,3.22
2023-05-12T14:39:39.128Z,2.80
2023-05-12T14:42:05.758Z,2.50
2023-05-12T14:44:32.292Z,3.05
2023-05-12T14:46:58.768Z,2.63
2023-05-12T14:49:25.165Z,2.42
2023-05-12T14:51:51.590Z,3.28
2023-05-12T14:54:25.357Z,2.90
2023-05-12T14:56:52.481Z,2.90
2023-05-12T14:59:19.048Z,3.17
2023-05-12T15:01:45.527Z,2.85
2023-05-12T15:04:12.022Z,2.92
2023-05-12T15:06:38.389Z,2.93
2023-05-12T15:09:04.772Z,2.90
2023-05-12T15:11:31.179Z,2.83
2023-05-12T15:13:57.731Z,2.97
2023-05-12T15:16:26.187Z,2.92
2023-05-12T15:18:52.759Z,3.23
2023-05-12T15:21:19.231Z,3.13
2023-05-12T15:23:45.690Z,2.60
2023-05-12T15:28:41.373Z,2.75
2023-05-12T15:31:08.189Z,2.57
2023-05-12T15:33:34.815Z,2.50
2023-05-12T15:36:01.210Z,2.58
2023-05-12T15:38:27.607Z,2.70
2023-05-12T15:40:54.488Z,2.58
2023-05-12T15:43:20.866Z,2.90
2023-05-12T15:45:47.344Z,3.10
2023-05-12T15:48:13.928Z,3.80
2023-05-12T15:50:40.457Z,3.47
2023-05-12T15:53:07.063Z,3.50
2023-05-12T15:55:33.617Z,3.87
2023-05-12T15:58:01.206Z,3.63
2023-05-12T16:00:28.083Z,3.58
2023-05-12T16:02:54.866Z,4.20
2023-05-12T16:05:23.872Z,3.85
2023-05-12T16:07:50.453Z,3.47
2023-05-12T16:10:17.465Z,3.47
2023-05-12T16:12:45.829Z,3.65
2023-05-12T16:15:12.657Z,3.63
2023-05-12T16:17:39.161Z,3.10
2023-05-12T16:20:07.707Z,3.40
2023-05-12T16:22:34.397Z,3.38
2023-05-12T16:25:00.783Z,3.00
2023-05-12T16:27:27.162Z,3.03
2023-05-12T16:29:53.677Z,3.50
2023-05-12T16:32:20.297Z,3.23
2023-05-12T16:34:47.022Z,3.17
2023-05-12T16:37:13.827Z,3.45
2023-05-12T16:39:40.182Z,3.33
2023-05-12T16:42:06.943Z,3.53
2023-05-12T16:44:33.531Z,3.63
2023-05-12T16:46:59.904Z,4.35
2023-05-12T16:49:26.251Z,3.92
2023-05-12T16:51:52.734Z,3.80
2023-05-12T16:54:19.123Z,3.88
2023-05-12T16:56:45.592Z,3.87
2023-05-12T16:59:11.968Z,3.53
2023-05-12T17:01:39.446Z,3.90
2023-05-12T17:04:07.916Z,3.58
2023-05-12T17:06:34.463Z,4.03
2023-05-12T17:09:01.393Z,3.97
2023-05-12T17:11:27.771Z,3.95
2023-05-12T17:13:54.152Z,4.10
2023-05-12T17:16:20.644Z,4.20
2023-05-12T17:21:16.485Z,4.20
2023-05-12T17:23:42.945Z,4.55
2023-05-12T17:26:09.331Z,4.15
2023-05-12T17:28:35.725Z,4.57
2023-05-12T17:31:02.209Z,4.50
2023-05-12T17:33:29.425Z,4.43
2023-05-12T17:36:10.799Z,4.28
2023-05-12T17:38:39.886Z,4.30
2023-05-12T17:41:06.382Z,3.90
2023-05-12T17:43:32.722Z,4.50
2023-05-12T17:46:00.408Z,4.70
2023-05-12T17:48:26.872Z,4.13
2023-05-12T17:50:53.312Z,4.40
2023-05-12T17:53:19.626Z,3.97
2023-05-12T17:55:46.089Z,4.00
2023-05-12T17:58:12.598Z,4.30
2023-05-12T18:00:39.047Z,3.80
2023-05-12T18:03:05.601Z,3.63
2023-05-12T18:05:32.706Z,4.00
2023-05-12T18:08:00.190Z,3.92
2023-05-12T18:10:26.817Z,3.90
2023-05-12T18:12:53.778Z,3.22
2023-05-12T18:15:24.204Z,3.00
2023-05-12T18:17:50.656Z,3.20
2023-05-12T18:20:17.664Z,3.50
2023-05-12T18:22:44.315Z,2.63
2023-05-12T18:25:12.699Z,2.50
2023-05-12T18:27:39.010Z,2.60
2023-05-12T18:30:05.953Z,2.17
2023-05-12T18:32:32.849Z,2.40
2023-05-12T18:34:59.606Z,2.57
2023-05-12T18:37:25.949Z,2.10
2023-05-12T18:39:54.303Z,2.10
2023-05-12T18:42:20.947Z,2.45
2023-05-12T18:44:47.352Z,2.22
2023-05-12T18:47:13.734Z,2.40
2023-05-12T18:49:40.066Z,2.40
2023-05-12T18:52:06.468Z,2.38
2023-05-12T18:54:32.830Z,2.40
2023-05-12T18:56:59.160Z,2.60
2023-05-12T18:59:25.549Z,2.33
2023-05-12T19:01:52.009Z,2.00
2023-05-12T19:04:19.537Z,2.60
2023-05-12T19:06:46.038Z,2.70
2023-05-12T19:09:12.458Z,2.40
2023-05-12T19:11:38.876Z,2.33
2023-05-12T19:14:05.437Z,2.70
2023-05-12T19:16:33.640Z,2.58
2023-05-12T19:19:01.811Z,2.50
2023-05-12T19:21:28.390Z,2.60
2023-05-12T19:23:55.802Z,2.70
2023-05-12T19:26:22.166Z,3.03
2023-05-12T19:28:48.572Z,2.97
2023-05-12T19:31:15.019Z,2.47
2023-05-12T19:33:41.536Z,2.42
2023-05-12T19:36:08.092Z,2.67
2023-05-12T19:38:34.542Z,2.80
2023-05-12T19:41:00.968Z,2.60
2023-05-12T19:43:27.354Z,2.63
2023-05-12T19:45:54.183Z,3.05
2023-05-12T19:48:21.293Z,3.20
2023-05-12T19:50:47.812Z,2.90
2023-05-12T19:53:14.193Z,3.10
2023-05-12T19:55:40.655Z,3.33
2023-05-12T19:58:08.839Z,3.50
2023-05-12T20:00:36.448Z,3.57
2023-05-12T20:03:05.549Z,3.30
2023-05-12T20:05:35.448Z,3.63
2023-05-12T20:08:01.808Z,3.58
2023-05-12T20:10:28.164Z,4.00
2023-05-12T20:12:55.186Z,3.97
2023-05-12T20:15:21.925Z,4.80
2023-05-12T20:17:48.585Z,4.13
2023-05-12T20:20:15.054Z,4.32
2023-05-12T20:22:41.456Z,3.63
2023-05-12T20:25:08.227Z,4.10
2023-05-12T20:27:34.604Z,4.65
2023-05-12T20:30:01.057Z,4.10
2023-05-12T20:32:27.520Z,4.38
2023-05-12T20:34:53.987Z,4.32
2023-05-12T20:37:20.444Z,4.17
2023-05-12T20:39:46.919Z,4.40
2023-05-12T20:42:13.931Z,4.93
2023-05-12T20:44:40.658Z,4.93
2023-05-12T20:47:07.224Z,5.25
2023-05-12T20:49:33.702Z,5.50
2023-05-12T20:52:00.174Z,5.05
2023-05-12T20:54:26.641Z,5.20
2023-05-12T20:56:53.037Z,4.82
2023-05-12T20:59:19.990Z,5.43
2023-05-12T21:01:46.622Z,6.07
2023-05-12T21:04:13.255Z,5.30
2023-05-12T21:06:40.219Z,5.07
2023-05-12T21:09:06.655Z,4.97
2023-05-12T21:11:33.183Z,5.28
2023-05-12T21:13:59.781Z,5.83
2023-05-12T21:16:26.314Z,5.10
2023-05-12T21:18:52.841Z,5.18
2023-05-12T21:21:19.302Z,5.60
2023-05-12T21:23:46.172Z,5.95
2023-05-12T21:26:12.562Z,5.50
2023-05-12T21:28:38.994Z,5.75
2023-05-12T21:31:05.448Z,5.10
2023-05-12T21:33:33.222Z,5.50
2023-05-12T21:35:59.637Z,5.82
2023-05-12T21:38:26.057Z,5.63
2023-05-12T21:40:52.826Z,4.93
2023-05-12T21:43:19.230Z,5.38
2023-05-12T21:45:45.840Z,5.30
2023-05-12T21:48:12.683Z,5.93
2023-05-12T21:50:39.167Z,5.90
2023-05-12T21:53:05.604Z,5.63
2023-05-12T21:55:32.494Z,5.20
2023-05-12T21:57:58.845Z,5.47
2023-05-12T22:00:26.071Z,5.75
2023-05-12T22:02:52.574Z,5.97
2023-05-12T22:05:19.123Z,4.88
2023-05-12T22:07:46.454Z,5.47
2023-05-12T22:10:13.102Z,5.25
2023-05-12T22:12:40.245Z,5.32
2023-05-12T22:15:07.668Z,5.30
2023-05-12T22:17:34.099Z,5.35
2023-05-12T22:20:00.464Z,5.40
2023-05-12T22:22:26.953Z,5.72
2023-05-12T22:24:53.453Z,5.22
2023-05-12T22:27:22.319Z,6.43
2023-05-12T22:29:48.964Z,5.45
2023-05-12T22:32:16.502Z,4.90
2023-05-12T22:34:42.939Z,5.18
2023-05-12T22:37:09.369Z,4.70
2023-05-12T22:39:35.746Z,4.77
2023-05-12T22:42:03.181Z,4.45
2023-05-12T22:44:29.767Z,4.38
2023-05-12T22:46:56.214Z,4.53
2023-05-12T22:49:22.607Z,4.60
2023-05-12T22:51:49.009Z,4.40
2023-05-12T22:54:15.746Z,4.53
2023-05-12T22:56:42.312Z,4.30
2023-05-12T22:59:08.705Z,4.50
2023-05-12T23:01:35.087Z,4.30
2023-05-12T23:04:01.499Z,4.20
2023-05-12T23:06:27.933Z,3.70
2023-05-12T23:08:54.418Z,4.20
2023-05-12T23:11:21.412Z,4.10
2023-05-12T23:13:47.802Z,4.20
2023-05-12T23:16:14.207Z,3.87
2023-05-12T23:18:40.670Z,4.60
2023-05-12T23:21:07.199Z,3.72
2023-05-12T23:23:33.602Z,3.78
2023-05-12T23:26:00.023Z,4.60
2023-05-12T23:28:26.353Z,3.80
2023-05-12T23:30:52.717Z,3.85
2023-05-12T23:33:19.159Z,4.00
2023-05-12T23:35:45.623Z,4.03
2023-05-12T23:38:11.954Z,4.03
2023-05-12T23:40:39.339Z,4.17
2023-05-12T23:43:06.668Z,3.47
2023-05-12T23:45:33.461Z,3.60
2023-05-12T23:48:00.847Z,3.55
2023-05-12T23:50:27.342Z,4.03
2023-05-12T23:52:53.955Z,3.53
2023-05-12T23:55:21.534Z,3.63
2023-05-12T23:57:48.829Z,3.97
